Time,TemperatureF,DewpointF,PressureIn,WindDirection,WindDirectionDegrees,WindSpeedMPH,WindSpeedGustMPH,Humidity,HourlyPrecipIn,Conditions,Clouds,dailyrainin,SoftwareType,DateUTC
2013-05-16 00:00:00,64.5,60.9,30.05,SW,215,0.0,0.0,88,0.00,,,0.00,Wunderground v.1.15,2013-05-16 06:00:00,
2013-05-16 00:10:00,64.5,60.9,30.05,SW,215,0.0,0.0,88,0.00,,,0.00,Wunderground v.1.15,2013-05-16 06:10:00,
2013-05-16 00:15:00,64.5,60.9,30.05,SW,215,0.0,0.0,88,0.00,,,0.00,Wunderground v.1.15,2013-05-16 06:15:00,
2013-05-16 00:25:00,64.3,60.7,30.05,SW,215,0.0,0.0,88,0.00,,,0.00,Wunderground v.1.15,2013-05-16 06:25:00,
2013-05-16 00:30:00,64.3,61.0,30.05,SW,215,0.0,0.0,89,0.00,,,0.00,Wunderground v.1.15,2013-05-16 06:30:00,
2013-05-16 00:40:00,64.3,61.0,30.05,SW,215,0.0,0.0,89,0.00,,,0.00,Wunderground v.1.15,2013-05-16 06:40:00,
2013-05-16 00:45:00,64.3,61.0,30.05,SW,215,0.0,0.0,89,0.00,,,0.00,Wunderground v.1.15,2013-05-16 06:45:00,
2013-05-16 00:55:00,64.3,61.0,30.05,SW,215,0.0,0.0,89,0.00,,,0.00,Wunderground v.1.15,2013-05-16 06:55:00,
2013-05-16 01:00:00,64.3,61.0,30.04,SW,215,0.0,0.0,89,0.00,,,0.00,Wunderground v.1.15,2013-05-16 07:00:00,
2013-05-16 01:10:00,64.3,61.3,30.04,SW,215,0.0,0.0,90,0.00,,,0.00,Wunderground v.1.15,2013-05-16 07:10:00,
2013-05-16 01:15:00,64.2,61.2,30.04,SW,215,0.0,0.0,90,0.00,,,0.00,Wunderground v.1.15,2013-05-16 07:15:00,
2013-05-16 01:25:00,64.2,61.2,30.04,SW,215,0.0,0.0,90,0.00,,,0.00,Wunderground v.1.15,2013-05-16 07:25:00,
2013-05-16 01:30:00,64.3,61.6,30.03,SW,215,0.0,0.0,91,0.00,,,0.00,Wunderground v.1.15,2013-05-16 07:30:00,
2013-05-16 01:40:00,64.3,61.6,30.03,SW,215,0.0,0.0,91,0.00,,,0.00,Wunderground v.1.15,2013-05-16 07:40:00,
2013-05-16 01:45:00,64.5,61.8,30.02,SW,215,0.0,0.0,91,0.00,,,0.00,Wunderground v.1.15,2013-05-16 07:45:00,
2013-05-16 01:55:00,64.3,61.6,30.02,SW,215,0.0,0.0,91,0.00,,,0.00,Wunderground v.1.15,2013-05-16 07:55:00,
2013-05-16 02:00:00,64.5,62.1,30.02,SW,215,0.0,0.0,92,0.00,,,0.00,Wunderground v.1.15,2013-05-16 08:00:00,
2013-05-16 02:10:00,64.5,62.1,30.02,SW,215,0.0,0.0,92,0.00,,,0.00,Wunderground v.1.15,2013-05-16 08:10:00,
2013-05-16 02:15:00,64.5,62.1,30.04,SW,215,0.0,0.0,92,0.00,,,0.00,Wunderground v.1.15,2013-05-16 08:15:00,
2013-05-16 02:25:00,64.5,62.1,30.04,SW,215,0.0,0.0,92,0.00,,,0.00,Wunderground v.1.15,2013-05-16 08:25:00,
2013-05-16 02:30:00,64.5,62.1,30.05,SW,215,0.0,0.0,92,0.00,,,0.00,Wunderground v.1.15,2013-05-16 08:30:00,
2013-05-16 02:40:00,64.7,62.3,30.05,SSW,213,0.0,0.0,92,0.00,,,0.00,Wunderground v.1.15,2013-05-16 08:40:00,
2013-05-16 11:35:00,80.3,67.0,30.05,SW,226,3.0,3.0,64,0.00,,,0.00,Wunderground v.1.15,2013-05-16 17:35:00,
2013-05-16 11:40:00,80.9,66.7,30.05,SE,133,2.0,3.0,62,0.00,,,0.00,Wunderground v.1.15,2013-05-16 17:40:00,
2013-05-16 11:45:00,80.5,66.3,30.04,South,174,2.0,2.0,62,0.00,,,0.00,Wunderground v.1.15,2013-05-16 17:45:00,
2013-05-16 11:55:00,80.1,66.8,30.04,South,169,1.0,1.0,64,0.00,,,0.00,Wunderground v.1.15,2013-05-16 17:55:00,
2013-05-16 12:00:00,80.1,66.4,30.04,ESE,119,2.0,2.0,63,0.00,,,0.00,Wunderground v.1.15,2013-05-16 18:00:00,
2013-05-16 12:10:00,80.3,66.6,30.04,South,184,2.0,2.0,63,0.00,,,0.00,Wunderground v.1.15,2013-05-16 18:10:00,
2013-05-16 12:15:00,80.3,66.1,30.04,SSW,200,3.0,6.0,62,0.00,,,0.00,Wunderground v.1.15,2013-05-16 18:15:00,
2013-05-16 12:25:00,80.1,66.4,30.04,WSW,246,3.0,4.0,63,0.00,,,0.00,Wunderground v.1.15,2013-05-16 18:25:00,
2013-05-16 12:30:00,80.7,66.5,30.03,West,263,2.0,7.0,62,0.00,,,0.00,Wunderground v.1.15,2013-05-16 18:30:00,
2013-05-16 12:40:00,81.4,67.1,30.03,WSW,246,3.0,7.0,62,0.00,,,0.00,Wunderground v.1.15,2013-05-16 18:40:00,
2013-05-16 12:45:00,81.6,66.8,30.03,South,181,3.0,7.0,61,0.00,,,0.00,Wunderground v.1.15,2013-05-16 18:45:00,
2013-05-16 12:55:00,81.6,66.8,30.03,West,261,3.0,4.0,61,0.00,,,0.00,Wunderground v.1.15,2013-05-16 18:55:00,
2013-05-16 13:00:00,81.4,66.2,30.03,SSE,165,2.0,6.0,60,0.00,,,0.00,Wunderground v.1.15,2013-05-16 19:00:00,
2013-05-16 13:10:00,81.2,66.5,30.03,SSE,161,3.0,4.0,61,0.00,,,0.00,Wunderground v.1.15,2013-05-16 19:10:00,
2013-05-16 13:15:00,81.2,66.5,30.02,SW,233,3.0,4.0,61,0.00,,,0.00,Wunderground v.1.15,2013-05-16 19:15:00,
2013-05-16 13:25:00,81.2,65.5,30.02,WSW,250,4.0,6.0,59,0.00,,,0.00,Wunderground v.1.15,2013-05-16 19:25:00,
2013-05-16 13:30:00,81.4,64.7,30.02,SSE,160,4.0,4.0,57,0.00,,,0.00,Wunderground v.1.15,2013-05-16 19:30:00,
2013-05-16 13:40:00,81.1,64.9,30.02,SSW,195,3.0,3.0,58,0.00,,,0.00,Wunderground v.1.15,2013-05-16 19:40:00,
2013-05-16 13:45:00,80.5,65.3,30.02,WNW,288,2.0,6.0,60,0.00,,,0.00,Wunderground v.1.15,2013-05-16 19:45:00,
2013-05-16 13:55:00,81.2,65.5,30.02,WSW,241,2.0,7.0,59,0.00,,,0.00,Wunderground v.1.15,2013-05-16 19:55:00,
2013-05-16 14:00:00,81.1,64.9,30.01,WSW,244,2.0,2.0,58,0.00,,,0.00,Wunderground v.1.15,2013-05-16 20:00:00,
2013-05-16 14:10:00,81.1,66.8,30.01,ENE,65,3.0,3.0,62,0.00,,,0.00,Wunderground v.1.15,2013-05-16 20:10:00,
2013-05-16 14:15:00,81.4,65.2,30.01,East,99,2.0,6.0,58,0.00,,,0.00,Wunderground v.1.15,2013-05-16 20:15:00,